Time;durP1;ratioP1;P1;durP2;ratioP2;P2;SDS_P1;SDS_P2;PMS_P1;PMS_P2;Temp;Humidity;BMP_temperature;BMP_pressure;BME280_temperature;BME280_humidity;BME280_pressure;Samples;Min_cycle;Max_cycle;Signal;HPM_P1;HPM_P2
2022/08/16 00:02:21;;;;;;;3.33;3.03;;;24.10;58.90;;;;;;5009680;28;20096;-67
2022/08/16 00:04:46;;;;;;;4.70;3.50;;;24.10;59.00;;;;;;5009884;28;20053;-68
2022/08/16 00:07:12;;;;;;;4.10;3.08;;;24.00;59.10;;;;;;5009672;28;20022;-68
2022/08/16 00:09:37;;;;;;;3.25;2.92;;;24.00;59.10;;;;;;5010147;28;20477;-67
2022/08/16 00:12:03;;;;;;;3.40;2.75;;;23.90;59.20;;;;;;5008971;28;20022;-68
2022/08/16 00:14:32;;;;;;;3.92;3.15;;;23.90;59.20;;;;;;5010013;28;20034;-68
2022/08/16 00:16:58;;;;;;;3.55;2.78;;;23.90;59.30;;;;;;5009291;28;20050;-67
2022/08/16 00:19:28;;;;;;;4.75;3.50;;;23.90;59.30;;;;;;5008657;28;20079;-67
2022/08/16 00:21:55;;;;;;;5.90;3.08;;;23.90;59.40;;;;;;5009385;28;20022;-68
2022/08/16 00:24:22;;;;;;;4.22;3.03;;;23.90;59.50;;;;;;5009147;28;20057;-67
2022/08/16 00:26:48;;;;;;;4.75;3.33;;;23.90;59.50;;;;;;5009437;28;20077;-67
2022/08/16 00:29:15;;;;;;;4.65;3.20;;;23.80;59.60;;;;;;5009655;28;20457;-65
2022/08/16 00:31:43;;;;;;;4.63;3.33;;;23.80;59.70;;;;;;5009418;28;20034;-66
2022/08/16 00:34:09;;;;;;;4.30;3.60;;;23.70;59.90;;;;;;5009071;28;20508;-66
2022/08/16 00:36:35;;;;;;;5.25;3.47;;;23.70;60.00;;;;;;5009779;28;20026;-66
2022/08/16 00:39:01;;;;;;;6.00;4.10;;;23.60;60.10;;;;;;5009497;28;20033;-67
2022/08/16 00:41:29;;;;;;;5.50;3.95;;;23.60;60.40;;;;;;5009497;28;20022;-66
2022/08/16 00:43:55;;;;;;;4.18;3.78;;;23.50;60.70;;;;;;5009599;28;20033;-66
2022/08/16 00:46:34;;;;;;;5.55;3.97;;;23.50;60.80;;;;;;5009320;28;20022;-67
2022/08/16 00:49:03;;;;;;;4.72;3.33;;;23.40;60.90;;;;;;5009227;28;20551;-65
2022/08/16 00:51:29;;;;;;;5.50;4.10;;;23.50;60.80;;;;;;5009491;28;20053;-66
2022/08/16 00:53:55;;;;;;;6.47;4.57;;;23.50;61.00;;;;;;5009385;28;20108;-66
2022/08/16 00:56:28;;;;;;;4.60;3.67;;;23.40;61.10;;;;;;5012457;28;20052;-66
2022/08/16 00:58:54;;;;;;;4.97;3.45;;;23.40;61.30;;;;;;5012791;28;20076;-66
2022/08/16 01:01:20;;;;;;;7.13;3.33;;;23.40;61.20;;;;;;5012659;28;20033;-65
2022/08/16 01:03:49;;;;;;;3.55;3.20;;;23.40;61.20;;;;;;5012299;28;20675;-67
2022/08/16 01:06:17;;;;;;;4.75;3.28;;;23.40;61.10;;;;;;5012826;28;20026;-66
2022/08/16 01:08:45;;;;;;;4.65;3.40;;;23.40;61.20;;;;;;5011910;28;20026;-66
2022/08/16 01:11:12;;;;;;;4.15;3.50;;;23.30;61.30;;;;;;5012855;28;20025;-66
2022/08/16 01:13:39;;;;;;;4.35;3.42;;;23.30;61.50;;;;;;5012450;28;20033;-66
2022/08/16 01:16:13;;;;;;;4.32;3.40;;;23.30;61.60;;;;;;5012796;28;20052;-65
2022/08/16 01:18:57;;;;;;;6.57;3.78;;;23.20;61.70;;;;;;5012005;28;20034;-66
2022/08/16 01:21:48;;;;;;;4.30;3.85;;;23.20;61.90;;;;;;5011897;28;20036;-65
2022/08/16 01:24:17;;;;;;;6.20;4.00;;;23.10;62.20;;;;;;5011863;28;20041;-66
2022/08/16 01:26:45;;;;;;;5.05;4.38;;;23.00;62.50;;;;;;5012551;28;20109;-68
2022/08/16 01:29:17;;;;;;;6.50;5.00;;;23.00;62.70;;;;;;5011648;28;20029;-67
2022/08/16 01:31:43;;;;;;;5.93;4.82;;;22.90;62.90;;;;;;5012286;28;20022;-66
2022/08/16 01:34:12;;;;;;;6.13;4.90;;;22.90;63.20;;;;;;5011953;28;20087;-67
2022/08/16 01:36:37;;;;;;;7.93;5.50;;;22.90;63.30;;;;;;5012080;28;20083;-66
2022/08/16 01:39:10;;;;;;;6.25;4.95;;;22.80;63.60;;;;;;5011878;28;20034;-67
2022/08/16 01:41:36;;;;;;;7.10;5.28;;;22.80;63.70;;;;;;5011975;28;20041;-66
2022/08/16 01:44:02;;;;;;;6.38;5.30;;;22.80;64.00;;;;;;5012274;28;20042;-66
2022/08/16 01:46:33;;;;;;;6.00;4.57;;;22.70;64.30;;;;;;5012226;28;20018;-66
2022/08/16 01:49:08;;;;;;;5.93;4.97;;;22.70;64.20;;;;;;5012000;28;20602;-66
2022/08/16 01:51:35;;;;;;;6.75;5.00;;;22.70;64.40;;;;;;4992948;28;20038;-65
2022/08/16 01:54:01;;;;;;;6.15;4.68;;;22.60;64.50;;;;;;5008739;28;20026;-65
2022/08/16 01:56:27;;;;;;;7.40;4.68;;;22.60;64.50;;;;;;5012338;28;20489;-66
2022/08/16 01:58:55;;;;;;;5.18;4.68;;;22.60;64.60;;;;;;5012240;28;20084;-66
2022/08/16 02:01:21;;;;;;;5.22;4.70;;;22.60;64.70;;;;;;5012157;28;20026;-66
2022/08/16 02:03:47;;;;;;;6.30;4.57;;;22.60;64.60;;;;;;5011584;28;20034;-66
2022/08/16 02:06:12;;;;;;;5.90;4.78;;;22.60;64.70;;;;;;5011836;28;20120;-66
2022/08/16 02:08:38;;;;;;;5.60;4.50;;;22.50;64.70;;;;;;5011065;28;20412;-68
2022/08/16 02:11:07;;;;;;;8.32;5.20;;;22.50;64.60;;;;;;5011894;28;20025;-67
2022/08/16 02:13:39;;;;;;;7.07;5.13;;;22.50;65.00;;;;;;5012444;28;20080;-67
2022/08/16 02:16:06;;;;;;;6.97;5.15;;;22.50;65.00;;;;;;5024872;28;20429;-67
2022/08/16 02:18:31;;;;;;;6.30;5.40;;;22.50;65.00;;;;;;5012795;28;20037;-66
2022/08/16 02:20:57;;;;;;;6.15;5.15;;;22.50;65.30;;;;;;5012006;28;20022;-67
2022/08/16 02:23:23;;;;;;;5.38;4.82;;;22.50;65.40;;;;;;5009872;28;20049;-67
2022/08/16 02:25:48;;;;;;;6.35;5.00;;;22.40;65.40;;;;;;5011126;28;20511;-67
2022/08/16 02:28:15;;;;;;;6.20;5.03;;;22.40;66.20;;;;;;5011342;28;20068;-66
2022/08/16 02:30:41;;;;;;;6.95;4.80;;;22.40;65.60;;;;;;5011041;28;20037;-67
2022/08/16 02:33:07;;;;;;;4.65;4.13;;;22.40;65.60;;;;;;5011281;28;20118;-66
2022/08/16 02:35:34;;;;;;;4.63;3.90;;;22.40;65.50;;;;;;5011641;28;20026;-66
2022/08/16 02:38:00;;;;;;;4.80;3.88;;;22.40;65.40;;;;;;5011011;28;20388;-67
2022/08/16 02:40:26;;;;;;;8.18;6.05;;;22.40;65.30;;;;;;5011038;28;20025;-66
2022/08/16 02:42:53;;;;;;;5.45;4.72;;;22.40;65.80;;;;;;5010642;28;20041;-66
2022/08/16 02:45:22;;;;;;;7.10;4.85;;;22.30;65.90;;;;;;5010922;28;20037;-67
2022/08/16 02:47:47;;;;;;;6.57;5.25;;;22.30;66.00;;;;;;5010613;28;20029;-68
2022/08/16 02:50:13;;;;;;;6.03;4.97;;;22.30;66.20;;;;;;5010819;28;20036;-67
2022/08/16 02:52:39;;;;;;;7.00;5.53;;;22.20;66.30;;;;;;5010988;28;20459;-66
2022/08/16 02:55:06;;;;;;;6.68;6.03;;;22.20;66.40;;;;;;5010649;28;20683;-67
2022/08/16 02:57:32;;;;;;;7.00;5.72;;;22.20;66.70;;;;;;5010451;28;20113;-68
2022/08/16 02:59:59;;;;;;;8.40;7.50;;;22.20;66.90;;;;;;5010565;28;20475;-66
2022/08/16 03:02:26;;;;;;;8.20;6.38;;;22.10;67.30;;;;;;5009575;28;20061;-67
2022/08/16 03:04:52;;;;;;;6.32;5.60;;;22.10;67.40;;;;;;5010600;28;20145;-68
2022/08/16 03:07:18;;;;;;;6.10;5.50;;;22.10;67.40;;;;;;5013287;28;20024;-67
2022/08/16 03:09:44;;;;;;;6.95;5.88;;;22.10;67.30;;;;;;5028518;28;20026;-67
2022/08/16 03:12:10;;;;;;;6.32;5.13;;;22.10;67.20;;;;;;5012861;28;20006;-67
2022/08/16 03:14:35;;;;;;;5.38;4.88;;;22.10;67.10;;;;;;5011370;28;20080;-67
2022/08/16 03:17:02;;;;;;;5.03;4.53;;;22.10;67.00;;;;;;5009590;28;20029;-67
2022/08/16 03:19:31;;;;;;;6.53;5.28;;;22.10;67.00;;;;;;5011311;28;20034;-67
2022/08/16 03:21:56;;;;;;;5.93;5.05;;;22.10;67.10;;;;;;5010755;28;20504;-68
2022/08/16 03:24:23;;;;;;;6.55;5.32;;;22.10;67.00;;;;;;5010473;28;20030;-67
2022/08/16 03:26:49;;;;;;;8.20;6.05;;;22.10;67.10;;;;;;5010712;28;20014;-67
2022/08/16 03:29:15;;;;;;;7.47;6.00;;;22.10;67.30;;;;;;5010691;28;20104;-68
2022/08/16 03:31:40;;;;;;;9.27;7.97;;;22.00;67.40;;;;;;5010206;28;20195;-68
2022/08/16 03:34:06;;;;;;;7.40;6.65;;;22.00;68.00;;;;;;5010521;28;20102;-67
2022/08/16 03:36:31;;;;;;;9.93;8.32;;;21.90;68.10;;;;;;5009102;28;20032;-67
2022/08/16 03:38:57;;;;;;;8.40;7.32;;;21.90;68.50;;;;;;5009608;28;20030;-67
2022/08/16 03:41:22;;;;;;;8.23;7.38;;;21.80;68.60;;;;;;5010067;28;20397;-67
2022/08/16 03:43:48;;;;;;;8.38;6.95;;;21.80;68.60;;;;;;5009500;28;20522;-68
2022/08/16 03:46:14;;;;;;;9.52;7.28;;;21.80;68.80;;;;;;5010138;28;20033;-67
2022/08/16 03:48:40;;;;;;;7.93;6.75;;;21.70;68.80;;;;;;5010061;28;20037;-66
2022/08/16 03:51:09;;;;;;;12.50;9.02;;;21.80;68.80;;;;;;5010036;28;20022;-66
2022/08/16 03:53:36;;;;;;;9.63;8.05;;;21.70;69.10;;;;;;5009949;28;20048;-67
2022/08/16 03:56:02;;;;;;;8.20;7.22;;;21.70;69.40;;;;;;5009841;28;20034;-66
2022/08/16 03:58:28;;;;;;;8.85;7.60;;;21.70;69.40;;;;;;5009991;28;20060;-67
2022/08/16 04:00:54;;;;;;;10.20;9.10;;;21.70;69.50;;;;;;5009421;28;20053;-68
2022/08/16 04:03:21;;;;;;;9.73;8.73;;;21.60;69.80;;;;;;5009846;28;20061;-68
2022/08/16 04:05:49;;;;;;;9.75;8.50;;;21.60;69.90;;;;;;5009372;28;20105;-66
2022/08/16 04:08:17;;;;;;;10.65;9.52;;;21.60;70.10;;;;;;4990854;28;20678;-66
2022/08/16 04:10:43;;;;;;;13.23;10.93;;;21.60;70.30;;;;;;5005071;28;20665;-67
2022/08/16 04:13:09;;;;;;;11.68;10.27;;;21.50;70.50;;;;;;4990449;28;20105;-66
2022/08/16 04:15:35;;;;;;;10.88;9.57;;;21.50;70.80;;;;;;5001794;28;20485;-67
2022/08/16 04:18:00;;;;;;;11.82;10.50;;;21.40;71.00;;;;;;5009990;28;20022;-67
2022/08/16 04:20:26;;;;;;;11.68;10.48;;;21.40;71.20;;;;;;5009966;28;20028;-67
2022/08/16 04:22:52;;;;;;;10.48;8.75;;;21.40;71.50;;;;;;5009752;28;20030;-67
2022/08/16 04:25:19;;;;;;;10.63;9.00;;;21.40;71.30;;;;;;5009521;28;20524;-68
2022/08/16 04:27:44;;;;;;;10.20;8.50;;;21.40;71.30;;;;;;5009562;28;20030;-67
2022/08/16 04:30:14;;;;;;;12.38;10.52;;;21.40;71.30;;;;;;5011213;28;20033;-66
2022/08/16 04:32:40;;;;;;;11.57;9.27;;;21.30;71.40;;;;;;5013510;28;20026;-67
2022/08/16 04:35:08;;;;;;;10.82;8.98;;;21.30;71.60;;;;;;5012969;28;20058;-66
2022/08/16 04:37:34;;;;;;;11.52;9.13;;;21.30;71.70;;;;;;5013372;28;20022;-66
2022/08/16 04:40:00;;;;;;;12.57;10.45;;;21.30;71.70;;;;;;5013141;28;20045;-66
2022/08/16 04:42:26;;;;;;;11.65;10.45;;;21.30;71.90;;;;;;5013420;28;20068;-66
2022/08/16 04:44:53;;;;;;;11.73;10.52;;;21.30;72.60;;;;;;5012907;28;20084;-66
2022/08/16 04:47:19;;;;;;;12.35;10.75;;;21.20;72.20;;;;;;5013015;28;20599;-67
2022/08/16 04:49:44;;;;;;;10.38;8.93;;;21.20;72.30;;;;;;5013273;28;20010;-68
2022/08/16 04:52:11;;;;;;;9.77;8.77;;;21.20;72.10;;;;;;5012611;28;20512;-66
2022/08/16 04:54:36;;;;;;;11.98;10.32;;;21.30;72.00;;;;;;5013275;28;20026;-66
2022/08/16 04:57:02;;;;;;;15.27;11.82;;;21.30;72.10;;;;;;5012839;28;20500;-66
2022/08/16 04:59:28;;;;;;;12.43;11.20;;;21.20;72.30;;;;;;5013151;28;20515;-66
2022/08/16 05:01:55;;;;;;;9.27;8.38;;;21.20;72.40;;;;;;5011364;28;20116;-66
2022/08/16 05:04:22;;;;;;;11.35;9.90;;;21.20;72.20;;;;;;5012987;28;20032;-65
2022/08/16 05:06:48;;;;;;;9.07;8.18;;;21.20;72.00;;;;;;5012854;28;20435;-67
2022/08/16 05:09:13;;;;;;;11.20;9.98;;;21.30;72.00;;;;;;5013036;28;20026;-66
2022/08/16 05:11:39;;;;;;;12.23;10.65;;;21.30;72.00;;;;;;5012879;28;20507;-66
2022/08/16 05:14:05;;;;;;;11.68;9.57;;;21.30;72.10;;;;;;5012075;28;20033;-66
2022/08/16 05:16:31;;;;;;;11.77;8.63;;;21.30;72.20;;;;;;5011271;28;20034;-66
2022/08/16 05:18:58;;;;;;;12.35;9.40;;;21.30;72.10;;;;;;5012620;28;20030;-67
2022/08/16 05:21:27;;;;;;;12.23;9.23;;;21.40;71.80;;;;;;5012393;28;20021;-66
2022/08/16 05:23:54;;;;;;;9.85;8.85;;;21.40;71.70;;;;;;5012406;28;20044;-66
2022/08/16 05:26:20;;;;;;;8.63;7.72;;;21.40;71.60;;;;;;5012250;28;20010;-67
2022/08/16 05:28:47;;;;;;;12.48;11.15;;;21.50;71.40;;;;;;5012365;28;20017;-66
2022/08/16 05:31:12;;;;;;;12.70;10.27;;;21.50;71.50;;;;;;5012074;28;20030;-66
2022/08/16 05:33:38;;;;;;;13.20;10.77;;;21.50;71.70;;;;;;5012405;28;20037;-66
2022/08/16 05:36:04;;;;;;;10.02;9.00;;;21.50;71.60;;;;;;5011995;28;20446;-66
2022/08/16 05:38:29;;;;;;;11.27;10.07;;;21.80;71.70;;;;;;5012830;28;20530;-66
2022/08/16 05:40:57;;;;;;;13.13;10.30;;;22.60;70.20;;;;;;5011302;28;20521;-66
2022/08/16 05:43:23;;;;;;;10.90;9.75;;;23.40;67.90;;;;;;5011995;28;20389;-66
2022/08/16 05:45:49;;;;;;;10.43;9.15;;;24.10;65.80;;;;;;5012063;28;20025;-67
2022/08/16 05:48:15;;;;;;;12.32;10.98;;;24.90;63.90;;;;;;5010824;28;20050;-66
2022/08/16 05:50:40;;;;;;;11.23;10.02;;;25.50;62.00;;;;;;5011806;28;20504;-68
2022/08/16 05:53:06;;;;;;;11.00;9.32;;;25.90;60.30;;;;;;5012063;28;20101;-67
2022/08/16 05:55:32;;;;;;;10.02;8.55;;;26.40;59.10;;;;;;5011878;28;20025;-66
2022/08/16 05:57:57;;;;;;;10.95;9.75;;;27.10;58.00;;;;;;5010029;28;20025;-66
2022/08/16 06:00:23;;;;;;;10.43;9.32;;;27.40;56.90;;;;;;5012088;28;20113;-67
2022/08/16 06:02:50;;;;;;;11.40;9.95;;;27.80;55.60;;;;;;5011508;28;20030;-66
2022/08/16 06:05:15;;;;;;;10.20;9.10;;;27.90;54.50;;;;;;5011894;28;20048;-67
2022/08/16 06:07:41;;;;;;;10.98;9.88;;;28.10;54.10;;;;;;5011989;28;20123;-67
2022/08/16 06:10:07;;;;;;;10.15;8.32;;;28.60;53.30;;;;;;5010009;28;20033;-67
2022/08/16 06:12:33;;;;;;;8.23;7.43;;;28.90;52.60;;;;;;5011059;28;20032;-67
2022/08/16 06:15:01;;;;;;;9.55;8.00;;;29.30;51.80;;;;;;5011602;28;20097;-67
2022/08/16 06:17:28;;;;;;;12.75;11.15;;;29.70;51.10;;;;;;5007688;28;20100;-66
2022/08/16 06:19:54;;;;;;;9.32;8.43;;;29.90;49.80;;;;;;5011590;28;20124;-67
2022/08/16 06:22:19;;;;;;;9.20;8.35;;;30.10;49.80;;;;;;5008866;28;20400;-67
2022/08/16 06:24:45;;;;;;;10.60;8.50;;;30.30;49.10;;;;;;5010089;28;20087;-67
2022/08/16 06:27:11;;;;;;;9.25;8.35;;;30.40;48.70;;;;;;5010885;28;20029;-66
2022/08/16 06:29:37;;;;;;;8.93;8.02;;;30.60;48.10;;;;;;5011363;28;20025;-66
2022/08/16 06:32:03;;;;;;;10.07;9.07;;;30.90;47.90;;;;;;5007496;28;20485;-66
2022/08/16 06:34:29;;;;;;;10.25;8.88;;;30.90;47.00;;;;;;5011309;28;20026;-66
2022/08/16 06:36:54;;;;;;;10.30;8.07;;;31.20;46.90;;;;;;5010786;28;20038;-66
2022/08/16 06:39:20;;;;;;;13.27;11.13;;;31.30;46.70;;;;;;5010896;28;20030;-66
2022/08/16 06:41:45;;;;;;;9.85;8.60;;;31.40;46.10;;;;;;5005525;28;20108;-66
2022/08/16 06:44:11;;;;;;;9.18;8.07;;;31.50;46.10;;;;;;5007941;28;20040;-66
2022/08/16 06:46:37;;;;;;;10.77;8.40;;;31.90;45.80;;;;;;5006694;28;20026;-67
2022/08/16 06:49:11;;;;;;;10.35;9.23;;;32.20;45.20;;;;;;5011497;28;20140;-68
2022/08/16 06:51:37;;;;;;;10.68;8.77;;;32.00;44.90;;;;;;5008119;28;20385;-68
2022/08/16 06:54:04;;;;;;;12.55;11.25;;;32.10;44.80;;;;;;5011738;28;20113;-67
2022/08/16 06:56:29;;;;;;;10.23;9.10;;;32.10;44.10;;;;;;5010236;28;20193;-66
2022/08/16 06:58:55;;;;;;;9.27;7.80;;;31.90;44.50;;;;;;5008989;28;20521;-67
2022/08/16 07:01:21;;;;;;;8.07;6.60;;;32.00;44.70;;;;;;5008834;28;20033;-68
2022/08/16 07:03:47;;;;;;;9.75;8.70;;;32.50;44.50;;;;;;5010968;28;20030;-66
2022/08/16 07:06:13;;;;;;;8.13;6.65;;;32.80;43.80;;;;;;5012603;28;20638;-67
2022/08/16 07:08:41;;;;;;;8.85;7.97;;;32.80;43.80;;;;;;5008431;28;20018;-66
2022/08/16 07:11:07;;;;;;;8.02;7.22;;;32.90;44.10;;;;;;5011051;28;20021;-67
2022/08/16 07:13:33;;;;;;;9.35;7.65;;;32.90;43.50;;;;;;5009535;28;20457;-67
2022/08/16 07:15:59;;;;;;;9.70;8.70;;;33.30;43.30;;;;;;5009305;28;20859;-66
2022/08/16 07:18:25;;;;;;;10.68;8.30;;;33.50;42.80;;;;;;5011295;28;20109;-68
2022/08/16 07:20:52;;;;;;;11.40;10.20;;;33.30;42.50;;;;;;5010571;28;20096;-67
2022/08/16 07:23:18;;;;;;;8.68;7.78;;;32.90;42.30;;;;;;5008584;28;20026;-67
2022/08/16 07:25:45;;;;;;;11.50;9.25;;;33.20;42.70;;;;;;5009636;28;20026;-67
2022/08/16 07:28:13;;;;;;;15.75;13.02;;;33.10;42.00;;;;;;5009058;28;20794;-67
2022/08/16 07:30:39;;;;;;;8.27;7.45;;;32.70;41.80;;;;;;5009643;28;20504;-67
2022/08/16 07:33:05;;;;;;;9.63;7.95;;;32.50;42.50;;;;;;5010227;28;20018;-67
2022/08/16 07:35:31;;;;;;;9.38;8.05;;;32.80;42.50;;;;;;5008781;28;20489;-66
2022/08/16 07:37:57;;;;;;;10.50;7.30;;;33.00;42.20;;;;;;5010614;28;20073;-67
2022/08/16 07:40:22;;;;;;;10.52;8.80;;;33.40;42.00;;;;;;5011114;28;20539;-67
2022/08/16 07:42:48;;;;;;;8.60;7.40;;;33.40;41.70;;;;;;5010548;28;20044;-67
2022/08/16 07:45:14;;;;;;;12.60;9.20;;;33.50;41.70;;;;;;5009340;28;20029;-67
2022/08/16 07:47:40;;;;;;;8.73;7.50;;;33.40;41.40;;;;;;5008543;28;20034;-67
2022/08/16 07:50:06;;;;;;;10.20;9.18;;;33.50;41.40;;;;;;5012271;28;20022;-67
2022/08/16 07:52:32;;;;;;;7.93;6.60;;;33.30;41.00;;;;;;5012910;28;20029;-67
2022/08/16 07:54:58;;;;;;;6.53;5.93;;;33.40;41.50;;;;;;5009871;28;20029;-67
2022/08/16 07:57:23;;;;;;;6.15;5.40;;;33.80;41.30;;;;;;5011813;28;20034;-67
2022/08/16 07:59:49;;;;;;;6.10;5.50;;;33.90;41.20;;;;;;5009279;28;20034;-67
2022/08/16 08:02:15;;;;;;;10.85;9.50;;;33.80;41.30;;;;;;5013616;28;20021;-68
2022/08/16 08:04:40;;;;;;;7.00;6.25;;;33.40;41.10;;;;;;5010444;28;20382;-68
2022/08/16 08:07:06;;;;;;;9.00;6.30;;;32.90;42.10;;;;;;5014185;28;20026;-67
2022/08/16 08:09:32;;;;;;;7.78;6.75;;;32.70;42.60;;;;;;5016069;28;20033;-67
2022/08/16 08:11:57;;;;;;;7.03;6.32;;;32.70;42.80;;;;;;5012522;28;20022;-67
2022/08/16 08:14:23;;;;;;;10.40;8.20;;;32.50;43.10;;;;;;5015922;28;20029;-67
2022/08/16 08:16:49;;;;;;;8.63;7.72;;;32.30;43.30;;;;;;5013308;28;20037;-67
2022/08/16 08:19:15;;;;;;;7.93;6.78;;;31.80;43.50;;;;;;5014520;28;20026;-66
2022/08/16 08:21:41;;;;;;;7.55;6.72;;;31.30;44.50;;;;;;5012080;28;20070;-67
2022/08/16 08:24:09;;;;;;;6.90;6.00;;;30.70;45.10;;;;;;5011812;28;20056;-67
2022/08/16 08:26:35;;;;;;;5.50;5.00;;;30.30;46.10;;;;;;5011927;28;20049;-66
2022/08/16 08:29:01;;;;;;;6.05;5.45;;;30.00;46.40;;;;;;5017216;28;20023;-67
2022/08/16 08:31:27;;;;;;;6.93;5.30;;;29.80;46.80;;;;;;5012556;28;20454;-66
2022/08/16 08:33:55;;;;;;;4.93;4.05;;;29.60;46.70;;;;;;5012778;28;20397;-68
2022/08/16 08:36:28;;;;;;;5.32;4.82;;;29.50;47.00;;;;;;5016338;28;20378;-66
2022/08/16 08:38:53;;;;;;;5.60;4.85;;;29.30;47.00;;;;;;5015588;28;20029;-66
2022/08/16 08:41:19;;;;;;;6.63;4.70;;;29.20;47.10;;;;;;5012469;28;20109;-66
2022/08/16 08:43:46;;;;;;;7.90;5.32;;;29.20;47.30;;;;;;5012820;28;20033;-66
2022/08/16 08:46:12;;;;;;;6.75;5.30;;;29.20;47.30;;;;;;5011805;28;20022;-67
2022/08/16 08:48:37;;;;;;;6.28;4.78;;;29.10;47.40;;;;;;5014969;28;20631;-66
2022/08/16 08:51:05;;;;;;;8.13;5.60;;;29.10;47.60;;;;;;5011770;28;20065;-67
2022/08/16 08:53:32;;;;;;;9.25;7.47;;;29.00;47.50;;;;;;5005339;28;20462;-65
2022/08/16 08:55:58;;;;;;;6.43;5.00;;;29.00;47.50;;;;;;5012508;28;20112;-66
2022/08/16 08:58:23;;;;;;;6.75;5.85;;;29.00;47.70;;;;;;5012705;28;20121;-66
2022/08/16 09:00:50;;;;;;;8.10;6.50;;;29.00;47.80;;;;;;5009540;28;20201;-67
2022/08/16 09:03:15;;;;;;;7.13;5.10;;;28.90;47.90;;;;;;5009548;28;20030;-68
2022/08/16 09:05:41;;;;;;;8.05;5.85;;;29.00;48.10;;;;;;5005634;28;20102;-67
2022/08/16 09:08:07;;;;;;;7.13;6.30;;;28.90;48.10;;;;;;5010071;28;20036;-67
2022/08/16 09:10:33;;;;;;;6.25;5.38;;;28.80;48.20;;;;;;5010162;28;20018;-67
2022/08/16 09:12:59;;;;;;;8.57;7.65;;;28.80;48.40;;;;;;5013515;28;20049;-68
2022/08/16 09:15:26;;;;;;;11.13;8.55;;;28.80;48.30;;;;;;5011052;28;20488;-67
2022/08/16 09:17:54;;;;;;;6.72;5.82;;;28.80;48.30;;;;;;5013929;28;20661;-66
2022/08/16 09:20:20;;;;;;;7.82;5.93;;;28.70;48.70;;;;;;5010305;28;20053;-66
2022/08/16 09:22:46;;;;;;;9.85;7.78;;;28.80;48.90;;;;;;5014114;28;20030;-66
2022/08/16 09:25:12;;;;;;;6.63;5.68;;;28.70;48.60;;;;;;5011427;28;20025;-67
2022/08/16 09:27:38;;;;;;;6.53;5.50;;;28.70;49.00;;;;;;5011383;28;20413;-67
2022/08/16 09:30:05;;;;;;;5.60;4.68;;;28.80;49.00;;;;;;5010788;28;20023;-66
2022/08/16 09:32:30;;;;;;;5.70;4.82;;;28.90;48.80;;;;;;5010907;28;20070;-66
2022/08/16 09:34:57;;;;;;;4.85;3.88;;;29.00;48.50;;;;;;5010978;28;20504;-67
2022/08/16 09:37:23;;;;;;;5.25;4.47;;;29.20;48.50;;;;;;5010398;28;20030;-67
2022/08/16 09:39:49;;;;;;;4.82;4.25;;;29.30;48.20;;;;;;5014101;28;20493;-66
2022/08/16 09:42:14;;;;;;;5.50;4.65;;;29.40;48.10;;;;;;5011480;28;20041;-67
2022/08/16 09:44:40;;;;;;;5.78;4.55;;;29.40;48.00;;;;;;5011995;28;20042;-68
2022/08/16 09:47:06;;;;;;;5.38;4.50;;;29.40;47.80;;;;;;5014408;28;20042;-68
2022/08/16 09:49:32;;;;;;;4.65;4.13;;;29.50;47.70;;;;;;5010745;28;20029;-66
2022/08/16 09:51:57;;;;;;;4.95;4.45;;;29.60;47.70;;;;;;5009136;28;20026;-67
2022/08/16 09:54:25;;;;;;;6.70;5.25;;;29.60;47.50;;;;;;5014453;28;20088;-67
2022/08/16 09:56:51;;;;;;;6.72;6.13;;;29.60;47.30;;;;;;5013396;28;20022;-67
2022/08/16 09:59:18;;;;;;;6.03;4.80;;;29.30;47.10;;;;;;5008112;28;20623;-68
2022/08/16 10:01:46;;;;;;;10.75;6.15;;;29.10;47.50;;;;;;5010534;28;20033;-67
2022/08/16 10:04:13;;;;;;;8.85;7.95;;;28.90;47.60;;;;;;5007922;28;20076;-68
2022/08/16 10:06:39;;;;;;;5.75;5.13;;;28.80;47.60;;;;;;5011923;28;20456;-67
2022/08/16 10:09:07;;;;;;;6.15;4.75;;;28.70;48.10;;;;;;5010569;28;20022;-68
2022/08/16 10:14:18;;;;;;;5.93;4.45;;;28.90;47.90;;;;;;5009005;28;20033;-68
2022/08/16 10:16:44;;;;;;;7.53;4.25;;;29.10;47.80;;;;;;5009881;28;20022;-67
2022/08/16 10:19:11;;;;;;;6.90;5.25;;;29.30;47.60;;;;;;5011736;28;20034;-68
2022/08/16 10:21:37;;;;;;;6.10;4.68;;;29.40;47.10;;;;;;5007773;28;20022;-68
2022/08/16 10:24:03;;;;;;;3.80;3.40;;;29.40;46.90;;;;;;5011934;28;20084;-67
2022/08/16 10:26:29;;;;;;;6.47;5.00;;;29.60;46.90;;;;;;5009897;28;20034;-68
2022/08/16 10:28:55;;;;;;;4.43;4.03;;;29.80;46.50;;;;;;5010350;28;20017;-68
2022/08/16 10:31:21;;;;;;;5.80;4.70;;;29.80;46.30;;;;;;5014947;28;20428;-67
2022/08/16 10:33:47;;;;;;;9.93;7.93;;;29.80;46.00;;;;;;5012917;28;20034;-66
2022/08/16 10:36:13;;;;;;;7.68;6.30;;;29.80;45.60;;;;;;5012089;28;20025;-67
2022/08/16 10:38:40;;;;;;;6.53;4.88;;;29.70;45.70;;;;;;5024254;28;20032;-67
2022/08/16 10:41:07;;;;;;;7.72;5.30;;;29.70;45.80;;;;;;5010632;28;21293;-67
2022/08/16 10:43:35;;;;;;;7.30;4.80;;;29.70;45.90;;;;;;5011955;28;20393;-67
2022/08/16 10:46:02;;;;;;;7.82;4.35;;;29.80;45.90;;;;;;5007896;28;20029;-67
2022/08/16 10:48:28;;;;;;;7.30;4.60;;;29.90;45.60;;;;;;5011630;28;20106;-66
2022/08/16 10:50:58;;;;;;;5.82;4.03;;;30.00;45.50;;;;;;5010810;28;20033;-68
2022/08/16 10:53:28;;;;;;;5.07;4.30;;;30.10;45.50;;;;;;5009605;28;20025;-67
2022/08/16 10:55:53;;;;;;;4.20;3.80;;;30.20;45.10;;;;;;5007226;28;20026;-67
2022/08/16 10:58:19;;;;;;;6.28;3.92;;;30.20;44.80;;;;;;5012356;28;20033;-65
2022/08/16 11:00:45;;;;;;;5.78;4.30;;;30.20;44.90;;;;;;5011799;28;20088;-67
2022/08/16 11:03:11;;;;;;;4.53;3.65;;;30.20;44.60;;;;;;5006394;28;20100;-66
2022/08/16 11:05:39;;;;;;;5.43;4.28;;;30.30;44.80;;;;;;5008023;28;20058;-66
2022/08/16 11:08:06;;;;;;;7.85;5.68;;;30.40;44.70;;;;;;5008621;28;20072;-68
2022/08/16 11:10:38;;;;;;;5.53;4.85;;;30.40;44.20;;;;;;5009693;28;20033;-68
2022/08/16 11:13:05;;;;;;;4.10;3.65;;;30.40;44.40;;;;;;5011638;28;20492;-67
2022/08/16 11:15:31;;;;;;;3.75;3.40;;;30.60;44.50;;;;;;5010443;28;20025;-70
2022/08/16 11:17:57;;;;;;;6.93;4.70;;;30.70;44.00;;;;;;5025914;28;20032;-68
2022/08/16 11:20:23;;;;;;;3.72;3.28;;;30.80;43.60;;;;;;5013254;28;20014;-67
2022/08/16 11:22:49;;;;;;;5.53;3.50;;;30.90;43.80;;;;;;5009285;28;20022;-68
2022/08/16 11:25:18;;;;;;;4.85;4.10;;;31.10;43.60;;;;;;5007812;28;20030;-68
2022/08/16 11:27:44;;;;;;;5.95;5.22;;;31.10;43.80;;;;;;5009582;28;20045;-67
2022/08/16 11:30:12;;;;;;;4.00;3.35;;;31.10;42.30;;;;;;5024897;28;20448;-66
2022/08/16 11:32:39;;;;;;;4.65;4.07;;;31.00;42.60;;;;;;5008889;28;20029;-68
2022/08/16 11:35:13;;;;;;;4.65;3.85;;;31.00;42.60;;;;;;5021237;28;20115;-67
2022/08/16 11:37:40;;;;;;;5.45;3.80;;;31.00;42.50;;;;;;5016613;28;20044;-67
2022/08/16 11:40:07;;;;;;;5.82;4.03;;;31.10;42.50;;;;;;5010701;28;20049;-67
2022/08/16 11:42:33;;;;;;;4.15;3.28;;;31.20;42.60;;;;;;5010627;28;20378;-67
2022/08/16 11:44:59;;;;;;;6.55;4.45;;;31.40;42.90;;;;;;5009308;28;20037;-67
2022/08/16 11:47:24;;;;;;;5.55;3.97;;;31.40;42.50;;;;;;5011467;28;20091;-67
2022/08/16 11:49:50;;;;;;;4.93;3.83;;;31.40;42.00;;;;;;5009039;28;20101;-67
2022/08/16 11:52:16;;;;;;;7.40;4.70;;;31.30;42.10;;;;;;5013002;28;20563;-68
2022/08/16 11:54:43;;;;;;;6.63;4.63;;;31.50;42.20;;;;;;5008004;28;20026;-68
2022/08/16 11:57:10;;;;;;;4.18;3.50;;;31.60;42.30;;;;;;5011390;28;20068;-68
2022/08/16 11:59:37;;;;;;;6.43;4.05;;;31.60;42.50;;;;;;5011042;28;20405;-67
2022/08/16 12:02:05;;;;;;;5.47;3.58;;;31.70;42.40;;;;;;5009599;28;20080;-68
2022/08/16 12:04:32;;;;;;;3.80;3.40;;;31.90;42.50;;;;;;5013500;28;20037;-69
2022/08/16 12:06:58;;;;;;;4.40;3.75;;;32.10;41.90;;;;;;5010053;28;20030;-66
2022/08/16 12:09:24;;;;;;;4.53;3.65;;;32.20;41.40;;;;;;5011211;28;20033;-67
2022/08/16 12:11:49;;;;;;;4.72;3.15;;;32.30;41.20;;;;;;5011467;28;20026;-68
2022/08/16 12:14:15;;;;;;;5.18;4.63;;;32.30;41.10;;;;;;5011177;28;20091;-66
2022/08/16 12:16:40;;;;;;;5.18;4.10;;;32.30;40.10;;;;;;5010119;28;20109;-67
2022/08/16 12:19:07;;;;;;;6.45;3.92;;;31.90;39.60;;;;;;5008240;28;20037;-67
2022/08/16 12:21:33;;;;;;;4.57;3.60;;;31.70;39.90;;;;;;5010880;28;20477;-66
2022/08/16 12:23:59;;;;;;;4.53;2.97;;;31.70;40.00;;;;;;5007793;28;20576;-67
2022/08/16 12:26:24;;;;;;;5.95;4.18;;;31.80;40.30;;;;;;5007451;28;20022;-67
2022/08/16 12:28:52;;;;;;;4.32;3.78;;;31.80;40.60;;;;;;5008645;28;20033;-68
2022/08/16 12:31:18;;;;;;;4.10;3.17;;;31.80;40.80;;;;;;5010936;28;21128;-67
2022/08/16 12:33:44;;;;;;;5.55;3.40;;;31.70;41.10;;;;;;5010889;28;20610;-67
2022/08/16 12:36:10;;;;;;;5.38;4.35;;;31.70;41.40;;;;;;5010169;28;20040;-67
2022/08/16 12:38:35;;;;;;;4.53;3.78;;;31.60;41.50;;;;;;5009573;28;20038;-67
2022/08/16 12:41:01;;;;;;;6.65;4.30;;;31.50;41.80;;;;;;5001819;28;20837;-67
2022/08/16 12:43:27;;;;;;;4.28;3.88;;;31.40;42.10;;;;;;5004327;28;20041;-66